KPR weather

Port Williams Seaplane Base
Port Williams, Alaska, United States

Public forecast

Using degrees Fahrenheit for public forecast. Weather courtesy of forecast.io.

METAR (pilot weather report)

Closest report is Kodiak Airport, 44.5 nm (82.5 km) S. Retrieved 2019/07/20 19:41 UTC (0 seconds ago):

PADQ 201941Z 5SM BR BKN005 BKN026 OVC036 14/13 A3013

TAF (pilot weather forecast)

Closest forecast is Kodiak Airport, 44.5 nm (82.5 km) S. Retrieved 2019/07/20 18:22 UTC (1 hour ago):

TAF PADQ 201720Z 2018/2118 09005KT 6SM BR BKN004 TEMPO 2018/2020 4SM BR FM202000 09005KT P6SM BKN007 FM210000 12005KT P6SM VCSH SCT010 BKN045 FM211200 VRB03KT 5SM BR BKN005